Terminal Aerodrome Forecast
Issued by NWS

Home | Current Version | Previous Version | Text Only | Print | Product List | Glossary On
Versions: 1 2 3 4 5 6 7 8 9 10 11 12 13 14 15 16 17 18 19 20 21 22 23 24 25 26 27 28 29 30 31 32 33 34 35
000
FTUS44 KHGX 192325
TAFLBX
TAF
KLBX 192325Z 2000/2024 15014G25KT P6SM BKN015 OVC045
     FM200200 15015KT P6SM SCT008 BKN015
     FM200600 15014G24KT 5SM BR BKN008 OVC012
     FM200900 15013G23KT 4SM BR OVC004
     FM201500 16013G23KT P6SM BKN006 OVC009
     FM201900 17017G27KT P6SM SCT009 OVC015=

USA.gov is the U.S. government's official web portal to all federal, state and local government web resources and services.